Ogdensburg, Wisconsin
Current Conditions -  °F | °C
As of 1:15 PM on Friday 24 Oct 2014 (Local Time) from KPCZ Reporting Station
Overcast Overcast  
Wind Chill: 53°   Ceiling: 500
Heat Index: 53°   Visibility: 10mi
Dew Point: 52°   Wind: 3mph
Humidity: 96%   Direction: 180°S
Pressure: 29.97"   Gusts: NA
Location:  44.45°N, 89.03°W
Report Text: KPCZ 241815Z AUTO 18003KT 10SM OVC005 12/11 A2997 RMK AO2 T01150109
Loading
Personal Weather Stations






























Interactive Weather Map
Tropical Storm Tracking
New forecast layout! Learn more

10-Day Weather Forecast

Advertisements
Track Severe Weather on mobile